sensor_id;sensor_type;location;lat;lon;timestamp;pressure;altitude;pressure_sealevel;temperature;humidity
29215;BME280;16252;49.816;7.964;2023-04-25T00:01:01;99377.03;;;12.46;56.93
29215;BME280;16252;49.816;7.964;2023-04-25T00:03:27;99356.00;;;12.32;56.88
29215;BME280;16252;49.816;7.964;2023-04-25T00:05:54;99388.88;;;12.53;56.99
29215;BME280;16252;49.816;7.964;2023-04-25T00:08:21;99380.56;;;12.47;56.67
29215;BME280;16252;49.816;7.964;2023-04-25T00:10:47;99357.00;;;12.31;57.11
29215;BME280;16252;49.816;7.964;2023-04-25T00:13:14;99360.38;;;12.33;57.07
29215;BME280;16252;49.816;7.964;2023-04-25T00:15:39;99347.84;;;12.24;56.59
29215;BME280;16252;49.816;7.964;2023-04-25T00:18:06;99360.25;;;12.34;56.75
29215;BME280;16252;49.816;7.964;2023-04-25T00:20:32;99343.31;;;12.24;56.91
29215;BME280;16252;49.816;7.964;2023-04-25T00:22:57;99357.97;;;12.30;56.71
29215;BME280;16252;49.816;7.964;2023-04-25T00:25:22;99357.00;;;12.31;56.75
29215;BME280;16252;49.816;7.964;2023-04-25T00:27:48;99324.97;;;12.10;56.62
29215;BME280;16252;49.816;7.964;2023-04-25T00:30:14;99377.75;;;12.39;56.69
29215;BME280;16252;49.816;7.964;2023-04-25T00:32:39;99371.56;;;12.28;56.63
29215;BME280;16252;49.816;7.964;2023-04-25T00:35:05;99351.50;;;12.23;56.60
29215;BME280;16252;49.816;7.964;2023-04-25T00:37:30;99322.34;;;12.00;56.67
29215;BME280;16252;49.816;7.964;2023-04-25T00:39:57;99386.06;;;12.35;56.97
29215;BME280;16252;49.816;7.964;2023-04-25T00:42:24;99375.78;;;12.31;57.03
29215;BME280;16252;49.816;7.964;2023-04-25T00:44:51;99329.78;;;12.06;56.92
29215;BME280;16252;49.816;7.964;2023-04-25T00:47:17;99354.88;;;12.25;56.94
29215;BME280;16252;49.816;7.964;2023-04-25T00:49:42;99371.69;;;12.36;57.39
29215;BME280;16252;49.816;7.964;2023-04-25T00:52:08;99376.03;;;12.47;57.14
29215;BME280;16252;49.816;7.964;2023-04-25T00:54:33;99353.03;;;12.35;57.18
29215;BME280;16252;49.816;7.964;2023-04-25T00:56:58;99376.88;;;12.48;57.19
29215;BME280;16252;49.816;7.964;2023-04-25T00:59:25;99359.78;;;12.49;57.18
29215;BME280;16252;49.816;7.964;2023-04-25T01:01:52;99355.56;;;12.46;57.18
29215;BME280;16252;49.816;7.964;2023-04-25T01:04:17;99316.91;;;12.29;57.03
29215;BME280;16252;49.816;7.964;2023-04-25T02:13:59;99359.13;;;12.27;56.88
29215;BME280;16252;49.816;7.964;2023-04-25T02:16:24;99357.28;;;12.28;56.98
29215;BME280;16252;49.816;7.964;2023-04-25T02:18:50;99349.94;;;12.20;57.39
29215;BME280;16252;49.816;7.964;2023-04-25T02:21:17;99358.56;;;12.24;57.60
29215;BME280;16252;49.816;7.964;2023-04-25T02:23:43;99338.66;;;12.17;57.67
29215;BME280;16252;49.816;7.964;2023-04-25T02:26:10;99353.91;;;12.26;57.53
29215;BME280;16252;49.816;7.964;2023-04-25T02:28:38;99359.28;;;12.26;57.38
29215;BME280;16252;49.816;7.964;2023-04-25T02:31:03;99349.09;;;12.20;57.56
29215;BME280;16252;49.816;7.964;2023-04-25T02:33:28;99342.06;;;12.19;57.63
29215;BME280;16252;49.816;7.964;2023-04-25T02:35:54;99359.94;;;12.28;57.60
29215;BME280;16252;49.816;7.964;2023-04-25T02:38:19;99362.63;;;12.28;57.64
29215;BME280;16252;49.816;7.964;2023-04-25T02:40:44;99374.78;;;12.32;57.66
29215;BME280;16252;49.816;7.964;2023-04-25T02:43:10;99368.28;;;12.34;57.55
29215;BME280;16252;49.816;7.964;2023-04-25T02:45:35;99331.34;;;12.19;57.25
29215;BME280;16252;49.816;7.964;2023-04-25T02:48:01;99309.06;;;12.08;57.52
29215;BME280;16252;49.816;7.964;2023-04-25T02:50:26;99350.50;;;12.33;57.38
29215;BME280;16252;49.816;7.964;2023-04-25T02:52:51;99329.19;;;12.22;57.23
29215;BME280;16252;49.816;7.964;2023-04-25T02:55:17;99340.91;;;12.31;57.13
29215;BME280;16252;49.816;7.964;2023-04-25T02:57:42;99346.53;;;12.28;57.19
29215;BME280;16252;49.816;7.964;2023-04-25T03:00:08;99322.03;;;12.13;57.31
29215;BME280;16252;49.816;7.964;2023-04-25T03:02:33;99338.09;;;12.23;57.22
29215;BME280;16252;49.816;7.964;2023-04-25T03:04:58;99339.22;;;12.20;57.53
29215;BME280;16252;49.816;7.964;2023-04-25T03:07:24;99349.81;;;12.22;57.26
29215;BME280;16252;49.816;7.964;2023-04-25T03:09:49;99353.75;;;12.27;57.44
29215;BME280;16252;49.816;7.964;2023-04-25T03:12:15;99328.66;;;12.19;57.49
29215;BME280;16252;49.816;7.964;2023-04-25T03:14:40;99327.66;;;12.10;57.88
29215;BME280;16252;49.816;7.964;2023-04-25T03:17:05;99347.84;;;12.24;57.31
29215;BME280;16252;49.816;7.964;2023-04-25T03:19:30;99350.94;;;12.19;57.30
29215;BME280;16252;49.816;7.964;2023-04-25T03:21:56;99338.81;;;12.15;57.51
29215;BME280;16252;49.816;7.964;2023-04-25T03:24:21;99356.31;;;12.19;57.43
29215;BME280;16252;49.816;7.964;2023-04-25T03:26:47;99350.25;;;12.17;57.51
29215;BME280;16252;49.816;7.964;2023-04-25T03:29:12;99340.38;;;12.08;57.29
29215;BME280;16252;49.816;7.964;2023-04-25T03:31:37;99329.25;;;12.03;57.65
29215;BME280;16252;49.816;7.964;2023-04-25T03:34:02;99339.81;;;12.04;57.53
29215;BME280;16252;49.816;7.964;2023-04-25T03:36:28;99350.25;;;12.07;57.69
29215;BME280;16252;49.816;7.964;2023-04-25T03:38:53;99342.66;;;12.03;57.55
29215;BME280;16252;49.816;7.964;2023-04-25T03:41:18;99356.91;;;12.03;57.62
29215;BME280;16252;49.816;7.964;2023-04-25T03:43:44;99357.88;;;12.02;57.66
29215;BME280;16252;49.816;7.964;2023-04-25T03:46:09;99334.00;;;11.80;57.43
29215;BME280;16252;49.816;7.964;2023-04-25T03:48:34;99341.66;;;11.94;57.47
29215;BME280;16252;49.816;7.964;2023-04-25T03:50:59;99312.72;;;11.78;57.61
29215;BME280;16252;49.816;7.964;2023-04-25T03:53:25;99322.31;;;11.81;57.71
29215;BME280;16252;49.816;7.964;2023-04-25T03:55:51;99354.75;;;11.87;57.60
29215;BME280;16252;49.816;7.964;2023-04-25T03:58:16;99338.38;;;11.71;57.73
29215;BME280;16252;49.816;7.964;2023-04-25T04:00:42;99345.59;;;11.80;57.69
29215;BME280;16252;49.816;7.964;2023-04-25T04:03:07;99360.53;;;11.83;57.85
29215;BME280;16252;49.816;7.964;2023-04-25T04:05:32;99342.91;;;11.70;57.90
29215;BME280;16252;49.816;7.964;2023-04-25T04:07:58;99326.81;;;11.61;57.74
29215;BME280;16252;49.816;7.964;2023-04-25T04:10:23;99360.13;;;11.78;57.63
29215;BME280;16252;49.816;7.964;2023-04-25T04:12:48;99334.28;;;11.57;57.54
29215;BME280;16252;49.816;7.964;2023-04-25T04:15:14;99313.66;;;11.38;57.92
29215;BME280;16252;49.816;7.964;2023-04-25T04:17:39;99381.28;;;11.81;58.00
29215;BME280;16252;49.816;7.964;2023-04-25T04:20:06;99380.97;;;11.84;58.21
29215;BME280;16252;49.816;7.964;2023-04-25T04:22:32;99355.72;;;11.67;57.85
29215;BME280;16252;49.816;7.964;2023-04-25T04:24:57;99354.31;;;11.63;58.12
29215;BME280;16252;49.816;7.964;2023-04-25T04:27:23;99386.91;;;11.78;58.05
29215;BME280;16252;49.816;7.964;2023-04-25T04:29:48;99390.88;;;11.83;58.19
29215;BME280;16252;49.816;7.964;2023-04-25T04:32:15;99353.47;;;11.62;57.98
29215;BME280;16252;49.816;7.964;2023-04-25T04:34:40;99366.59;;;11.65;58.10
29215;BME280;16252;49.816;7.964;2023-04-25T04:37:06;99397.63;;;11.78;57.89
29215;BME280;16252;49.816;7.964;2023-04-25T04:39:32;99410.94;;;11.89;57.94
29215;BME280;16252;49.816;7.964;2023-04-25T04:41:58;99373.34;;;11.69;58.07
29215;BME280;16252;49.816;7.964;2023-04-25T04:44:24;99382.94;;;11.72;58.05
29215;BME280;16252;49.816;7.964;2023-04-25T04:46:50;99381.81;;;11.75;58.03
29215;BME280;16252;49.816;7.964;2023-04-25T04:49:15;99383.81;;;11.73;58.24
29215;BME280;16252;49.816;7.964;2023-04-25T04:51:40;99406.22;;;11.81;58.36
29215;BME280;16252;49.816;7.964;2023-04-25T04:54:06;99422.91;;;11.95;58.23
29215;BME280;16252;49.816;7.964;2023-04-25T04:56:32;99398.91;;;11.83;58.18
29215;BME280;16252;49.816;7.964;2023-04-25T04:58:58;99434.06;;;12.00;58.32
29215;BME280;16252;49.816;7.964;2023-04-25T05:01:33;99411.75;;;11.89;58.41
29215;BME280;16252;49.816;7.964;2023-04-25T05:04:04;99383.22;;;11.79;58.40
29215;BME280;16252;49.816;7.964;2023-04-25T05:06:30;99427.88;;;11.99;58.35
29215;BME280;16252;49.816;7.964;2023-04-25T05:08:56;99440.44;;;12.18;58.30
29215;BME280;16252;49.816;7.964;2023-04-25T05:11:22;99423.34;;;12.09;57.96
29215;BME280;16252;49.816;7.964;2023-04-25T05:13:51;99389.63;;;11.97;58.01
29215;BME280;16252;49.816;7.964;2023-04-25T05:16:16;99385.81;;;12.00;57.66
29215;BME280;16252;49.816;7.964;2023-04-25T05:18:41;99418.13;;;12.18;57.27
29215;BME280;16252;49.816;7.964;2023-04-25T05:21:10;99441.72;;;12.24;57.23
29215;BME280;16252;49.816;7.964;2023-04-25T05:23:35;99393.59;;;11.93;57.38
29215;BME280;16252;49.816;7.964;2023-04-25T05:26:00;99386.81;;;11.89;57.43
29215;BME280;16252;49.816;7.964;2023-04-25T05:28:26;99396.53;;;11.90;57.27
29215;BME280;16252;49.816;7.964;2023-04-25T05:30:51;99463.44;;;12.30;57.36
29215;BME280;16252;49.816;7.964;2023-04-25T05:33:17;99468.78;;;12.30;57.25
29215;BME280;16252;49.816;7.964;2023-04-25T05:39:01;99421.66;;;11.99;56.96
29215;BME280;16252;49.816;7.964;2023-04-25T05:41:26;99433.81;;;12.03;57.13
29215;BME280;16252;49.816;7.964;2023-04-25T05:43:52;99451.31;;;12.17;56.97
29215;BME280;16252;49.816;7.964;2023-04-25T05:46:17;99423.94;;;12.03;56.72
29215;BME280;16252;49.816;7.964;2023-04-25T05:48:42;99412.91;;;11.97;56.83
29215;BME280;16252;49.816;7.964;2023-04-25T05:51:11;99411.94;;;11.98;56.93
29215;BME280;16252;49.816;7.964;2023-04-25T05:53:46;99411.50;;;12.02;56.70
29215;BME280;16252;49.816;7.964;2023-04-25T05:56:11;99426.75;;;12.11;56.58
29215;BME280;16252;49.816;7.964;2023-04-25T05:58:41;99402.75;;;11.90;56.72
29215;BME280;16252;49.816;7.964;2023-04-25T06:01:06;99427.47;;;12.13;56.21
29215;BME280;16252;49.816;7.964;2023-04-25T06:03:32;99369.53;;;11.72;56.29
29215;BME280;16252;49.816;7.964;2023-04-25T06:06:03;99369.53;;;11.72;55.49
29215;BME280;16252;49.816;7.964;2023-04-25T06:08:33;99367.56;;;11.74;55.75
29215;BME280;16252;49.816;7.964;2023-04-25T06:11:01;99435.78;;;12.10;55.65
29215;BME280;16252;49.816;7.964;2023-04-25T06:13:26;99423.94;;;12.03;55.68
29215;BME280;16252;49.816;7.964;2023-04-25T06:15:52;99438.72;;;12.07;55.69
29215;BME280;16252;49.816;7.964;2023-04-25T06:18:17;99407.25;;;11.90;55.89
29215;BME280;16252;49.816;7.964;2023-04-25T06:20:42;99420.09;;;11.96;55.78
29215;BME280;16252;49.816;7.964;2023-04-25T06:23:07;99436.47;;;12.12;55.63
29215;BME280;16252;49.816;7.964;2023-04-25T06:25:33;99421.78;;;11.97;55.37
29215;BME280;16252;49.816;7.964;2023-04-25T06:27:58;99409.94;;;11.90;55.21
29215;BME280;16252;49.816;7.964;2023-04-25T06:30:26;99438.72;;;12.07;55.03
29215;BME280;16252;49.816;7.964;2023-04-25T06:32:54;99445.81;;;12.08;54.47
29215;BME280;16252;49.816;7.964;2023-04-25T06:35:20;99467.09;;;12.10;54.67
29215;BME280;16252;49.816;7.964;2023-04-25T06:37:45;99494.50;;;12.13;54.82
29215;BME280;16252;49.816;7.964;2023-04-25T06:40:10;99493.91;;;12.10;54.85
29215;BME280;16252;49.816;7.964;2023-04-25T06:42:36;99477.84;;;12.00;54.83
29215;BME280;16252;49.816;7.964;2023-04-25T06:45:05;99506.78;;;12.16;54.90
29215;BME280;16252;49.816;7.964;2023-04-25T06:47:30;99496.16;;;12.05;55.29
29215;BME280;16252;49.816;7.964;2023-04-25T06:49:55;99496.16;;;12.05;54.93
29215;BME280;16252;49.816;7.964;2023-04-25T06:52:21;99457.03;;;11.83;54.98
29215;BME280;16252;49.816;7.964;2023-04-25T06:54:46;99484.56;;;11.95;55.03
29215;BME280;16252;49.816;7.964;2023-04-25T06:57:14;99457.72;;;11.85;54.89
29215;BME280;16252;49.816;7.964;2023-04-25T06:59:40;99493.94;;;12.00;55.02
29215;BME280;16252;49.816;7.964;2023-04-25T07:02:05;99488.56;;;12.00;54.81
29215;BME280;16252;49.816;7.964;2023-04-25T07:04:31;99506.63;;;12.08;54.57
29215;BME280;16252;49.816;7.964;2023-04-25T07:06:56;99511.56;;;12.12;54.47
29215;BME280;16252;49.816;7.964;2023-04-25T07:09:25;99477.41;;;11.95;54.58
29215;BME280;16252;49.816;7.964;2023-04-25T07:11:53;99484.44;;;11.96;54.45
29215;BME280;16252;49.816;7.964;2023-04-25T07:14:19;99449.81;;;11.74;54.65
29215;BME280;16252;49.816;7.964;2023-04-25T07:16:44;99485.72;;;12.02;54.58
29215;BME280;16252;49.816;7.964;2023-04-25T07:19:12;99528.69;;;12.31;54.66
29215;BME280;16252;49.816;7.964;2023-04-25T07:21:37;99523.84;;;12.25;54.08
29215;BME280;16252;49.816;7.964;2023-04-25T07:24:03;99517.38;;;12.27;54.50
29215;BME280;16252;49.816;7.964;2023-04-25T07:26:28;99519.75;;;12.30;54.08
29215;BME280;16252;49.816;7.964;2023-04-25T07:28:54;99460.19;;;12.07;54.32
29215;BME280;16252;49.816;7.964;2023-04-25T07:31:19;99448.75;;;11.96;54.05
29215;BME280;16252;49.816;7.964;2023-04-25T07:33:45;99523.16;;;12.32;54.03
29215;BME280;16252;49.816;7.964;2023-04-25T07:36:13;99493.38;;;12.16;54.00
29215;BME280;16252;49.816;7.964;2023-04-25T07:38:40;99483.50;;;12.17;53.97
29215;BME280;16252;49.816;7.964;2023-04-25T07:41:05;99476.44;;;12.16;54.22
29215;BME280;16252;49.816;7.964;2023-04-25T07:43:30;99500.00;;;12.31;54.23
29215;BME280;16252;49.816;7.964;2023-04-25T07:45:56;99547.03;;;12.65;54.20
29215;BME280;16252;49.816;7.964;2023-04-25T07:48:22;99494.66;;;12.41;54.18
29215;BME280;16252;49.816;7.964;2023-04-25T07:50:47;99528.09;;;12.76;53.71
29215;BME280;16252;49.816;7.964;2023-04-25T07:53:13;99519.50;;;12.72;53.14
29215;BME280;16252;49.816;7.964;2023-04-25T07:55:38;99540.97;;;12.92;53.53
29215;BME280;16252;49.816;7.964;2023-04-25T07:58:06;99570.19;;;13.14;53.42
29215;BME280;16252;49.816;7.964;2023-04-25T08:00:31;99537.25;;;13.12;52.93
29215;BME280;16252;49.816;7.964;2023-04-25T08:02:56;99535.50;;;13.21;52.89
29215;BME280;16252;49.816;7.964;2023-04-25T08:05:22;99539.75;;;13.33;52.98
29215;BME280;16252;49.816;7.964;2023-04-25T08:07:47;99537.59;;;13.47;53.10
29215;BME280;16252;49.816;7.964;2023-04-25T08:10:12;99515.56;;;13.43;52.45
29215;BME280;16252;49.816;7.964;2023-04-25T08:12:38;99540.06;;;13.68;52.31
29215;BME280;16252;49.816;7.964;2023-04-25T08:15:04;99556.25;;;13.85;51.77
29215;BME280;16252;49.816;7.964;2023-04-25T08:17:30;99569.31;;;14.08;51.83
29215;BME280;16252;49.816;7.964;2023-04-25T08:19:55;99559.22;;;14.10;51.38
29215;BME280;16252;49.816;7.964;2023-04-25T08:22:22;99562.81;;;14.28;51.46
29215;BME280;16252;49.816;7.964;2023-04-25T08:24:47;99575.16;;;14.49;51.59
29215;BME280;16252;49.816;7.964;2023-04-25T08:27:12;99575.50;;;14.64;51.49
29215;BME280;16252;49.816;7.964;2023-04-25T08:29:38;99531.16;;;14.58;51.12
29215;BME280;16252;49.816;7.964;2023-04-25T08:32:03;99558.09;;;14.76;50.80
29215;BME280;16252;49.816;7.964;2023-04-25T08:34:28;99547.59;;;14.91;50.72
29215;BME280;16252;49.816;7.964;2023-04-25T08:36:54;99593.44;;;15.35;50.69
29215;BME280;16252;49.816;7.964;2023-04-25T08:39:19;99568.31;;;15.60;51.23
29215;BME280;16252;49.816;7.964;2023-04-25T08:41:45;99587.13;;;16.13;50.81
29215;BME280;16252;49.816;7.964;2023-04-25T08:44:11;99605.81;;;16.49;49.79
29215;BME280;16252;49.816;7.964;2023-04-25T08:46:40;99615.19;;;16.79;48.89
29215;BME280;16252;49.816;7.964;2023-04-25T08:49:08;99565.47;;;16.55;47.66
29215;BME280;16252;49.816;7.964;2023-04-25T08:51:36;99586.78;;;16.66;46.95
29215;BME280;16252;49.816;7.964;2023-04-25T08:54:10;99628.88;;;16.94;47.23
29215;BME280;16252;49.816;7.964;2023-04-25T08:56:37;99609.47;;;16.82;46.90
29215;BME280;16252;49.816;7.964;2023-04-25T08:59:03;99598.13;;;16.78;46.84
29215;BME280;16252;49.816;7.964;2023-04-25T09:01:29;99615.56;;;16.92;46.58
29215;BME280;16252;49.816;7.964;2023-04-25T09:03:56;99623.16;;;17.05;46.51
29215;BME280;16252;49.816;7.964;2023-04-25T09:06:23;99630.91;;;17.08;46.16
29215;BME280;16252;49.816;7.964;2023-04-25T09:08:50;99645.13;;;17.26;45.39
29215;BME280;16252;49.816;7.964;2023-04-25T09:11:15;99626.69;;;17.14;45.45
29215;BME280;16252;49.816;7.964;2023-04-25T09:13:40;99631.25;;;17.13;45.88
29215;BME280;16252;49.816;7.964;2023-04-25T09:16:06;99621.44;;;17.04;45.83
29215;BME280;16252;49.816;7.964;2023-04-25T09:18:33;99662.53;;;17.32;45.81
29215;BME280;16252;49.816;7.964;2023-04-25T09:21:10;99633.44;;;17.34;45.79
29215;BME280;16252;49.816;7.964;2023-04-25T09:26:07;99664.56;;;17.63;46.18
29215;BME280;16252;49.816;7.964;2023-04-25T09:28:32;99646.09;;;17.66;46.91
29215;BME280;16252;49.816;7.964;2023-04-25T09:31:00;99647.09;;;17.98;46.87
29215;BME280;16252;49.816;7.964;2023-04-25T09:33:30;99664.06;;;18.31;45.50
29215;BME280;16252;49.816;7.964;2023-04-25T09:36:07;99669.94;;;18.43;45.22
29215;BME280;16252;49.816;7.964;2023-04-25T09:38:41;99678.41;;;18.40;44.92
29215;BME280;16252;49.816;7.964;2023-04-25T09:41:07;99653.47;;;18.13;44.50
29215;BME280;16252;49.816;7.964;2023-04-25T09:43:33;99667.34;;;18.10;44.10
29215;BME280;16252;49.816;7.964;2023-04-25T09:45:58;99695.44;;;18.09;44.22
29215;BME280;16252;49.816;7.964;2023-04-25T09:48:26;99713.22;;;18.04;43.90
29215;BME280;16252;49.816;7.964;2023-04-25T09:53:41;99704.59;;;17.59;44.32
29215;BME280;16252;49.816;7.964;2023-04-25T09:56:11;99711.22;;;17.40;43.14
29215;BME280;16252;49.816;7.964;2023-04-25T09:58:39;99707.09;;;17.03;44.32
29215;BME280;16252;49.816;7.964;2023-04-25T10:01:06;99720.03;;;16.83;43.92
29215;BME280;16252;49.816;7.964;2023-04-25T10:03:34;99713.03;;;16.56;44.41
29215;BME280;16252;49.816;7.964;2023-04-25T10:06:05;99729.59;;;16.35;44.62
29215;BME280;16252;49.816;7.964;2023-04-25T10:08:33;99718.16;;;16.07;44.77
29215;BME280;16252;49.816;7.964;2023-04-25T10:11:00;99691.50;;;15.78;44.40
29215;BME280;16252;49.816;7.964;2023-04-25T10:13:28;99724.06;;;15.85;44.86
29215;BME280;16252;49.816;7.964;2023-04-25T10:15:55;99719.25;;;15.70;45.09
29215;BME280;16252;49.816;7.964;2023-04-25T10:18:21;99712.53;;;15.56;45.23
29215;BME280;16252;49.816;7.964;2023-04-25T10:20:46;99729.72;;;15.55;45.33
29215;BME280;16252;49.816;7.964;2023-04-25T10:23:13;99737.25;;;15.52;45.47
29215;BME280;16252;49.816;7.964;2023-04-25T10:25:41;99739.50;;;15.56;45.87
29215;BME280;16252;49.816;7.964;2023-04-25T10:28:07;99714.34;;;15.48;46.14
29215;BME280;16252;49.816;7.964;2023-04-25T10:30:32;99734.84;;;15.85;47.25
29215;BME280;16252;49.816;7.964;2023-04-25T10:33:00;99704.16;;;16.03;47.20
29215;BME280;16252;49.816;7.964;2023-04-25T10:35:29;99736.53;;;16.72;46.73
29215;BME280;16252;49.816;7.964;2023-04-25T10:40:24;99701.88;;;17.18;45.50
29215;BME280;16252;49.816;7.964;2023-04-25T10:42:55;99699.38;;;17.41;44.92
29215;BME280;16252;49.816;7.964;2023-04-25T10:45:21;99728.78;;;17.69;44.47
29215;BME280;16252;49.816;7.964;2023-04-25T10:47:46;99717.78;;;17.95;44.61
29215;BME280;16252;49.816;7.964;2023-04-25T10:50:14;99710.66;;;18.18;43.63
29215;BME280;16252;49.816;7.964;2023-04-25T10:52:41;99657.38;;;18.03;43.50
29215;BME280;16252;49.816;7.964;2023-04-25T10:55:07;99709.03;;;18.40;43.30
29215;BME280;16252;49.816;7.964;2023-04-25T10:57:43;99724.75;;;18.53;42.06
29215;BME280;16252;49.816;7.964;2023-04-25T11:00:15;99698.25;;;18.32;43.13
29215;BME280;16252;49.816;7.964;2023-04-25T11:02:46;99709.28;;;18.23;42.00
29215;BME280;16252;49.816;7.964;2023-04-25T11:07:51;99708.31;;;17.99;42.26
29215;BME280;16252;49.816;7.964;2023-04-25T11:10:17;99719.50;;;17.80;42.12
29215;BME280;16252;49.816;7.964;2023-04-25T11:12:45;99720.50;;;17.62;42.47
29215;BME280;16252;49.816;7.964;2023-04-25T11:15:10;99713.06;;;17.40;42.72
29215;BME280;16252;49.816;7.964;2023-04-25T11:17:35;99721.16;;;17.31;42.53
29215;BME280;16252;49.816;7.964;2023-04-25T11:20:01;99729.25;;;17.23;42.54
29215;BME280;16252;49.816;7.964;2023-04-25T11:22:31;99734.66;;;17.15;42.42
29215;BME280;16252;49.816;7.964;2023-04-25T11:24:56;99739.72;;;17.10;42.54
29215;BME280;16252;49.816;7.964;2023-04-25T11:27:22;99748.00;;;17.08;42.47
29215;BME280;16252;49.816;7.964;2023-04-25T11:29:49;99717.88;;;16.87;42.69
29215;BME280;16252;49.816;7.964;2023-04-25T11:32:15;99732.91;;;16.89;43.02
29215;BME280;16252;49.816;7.964;2023-04-25T11:34:43;99737.16;;;16.92;42.70
29215;BME280;16252;49.816;7.964;2023-04-25T11:37:10;99747.06;;;16.83;42.85
29215;BME280;16252;49.816;7.964;2023-04-25T11:39:37;99746.22;;;16.83;42.84
29215;BME280;16252;49.816;7.964;2023-04-25T11:42:04;99712.47;;;16.53;42.85
29215;BME280;16252;49.816;7.964;2023-04-25T11:44:32;99739.84;;;16.58;42.66
29215;BME280;16252;49.816;7.964;2023-04-25T11:46:57;99747.09;;;16.57;42.89
29215;BME280;16252;49.816;7.964;2023-04-25T11:49:23;99699.50;;;16.22;42.69
29215;BME280;16252;49.816;7.964;2023-04-25T11:51:49;99707.56;;;16.14;42.69
29215;BME280;16252;49.816;7.964;2023-04-25T11:54:15;99747.78;;;16.25;42.46
29215;BME280;16252;49.816;7.964;2023-04-25T11:56:45;99746.06;;;16.16;42.27
29215;BME280;16252;49.816;7.964;2023-04-25T11:59:10;99739.75;;;16.07;43.13
29215;BME280;16252;49.816;7.964;2023-04-25T12:01:38;99753.78;;;16.11;42.84
29215;BME280;16252;49.816;7.964;2023-04-25T12:04:14;99745.25;;;15.97;43.35
29215;BME280;16252;49.816;7.964;2023-04-25T12:06:41;99733.31;;;15.82;43.27
29215;BME280;16252;49.816;7.964;2023-04-25T12:09:10;99774.31;;;16.03;43.59
29215;BME280;16252;49.816;7.964;2023-04-25T12:11:43;99740.22;;;16.02;43.65
29215;BME280;16252;49.816;7.964;2023-04-25T12:14:10;99741.59;;;16.07;43.74
29215;BME280;16252;49.816;7.964;2023-04-25T12:16:45;99766.78;;;16.41;43.20
29215;BME280;16252;49.816;7.964;2023-04-25T12:19:17;99772.91;;;16.52;43.37
29215;BME280;16252;49.816;7.964;2023-04-25T12:21:44;99734.72;;;16.38;43.25
29215;BME280;16252;49.816;7.964;2023-04-25T12:24:27;99752.03;;;16.62;42.83
29215;BME280;16252;49.816;7.964;2023-04-25T12:26:58;99762.91;;;16.78;41.30
29215;BME280;16252;49.816;7.964;2023-04-25T12:29:27;99751.97;;;16.80;41.85
29215;BME280;16252;49.816;7.964;2023-04-25T12:31:54;99721.97;;;16.57;41.98
29215;BME280;16252;49.816;7.964;2023-04-25T12:34:20;99783.41;;;16.89;41.55
29215;BME280;16252;49.816;7.964;2023-04-25T12:36:46;99728.72;;;16.61;41.44
29215;BME280;16252;49.816;7.964;2023-04-25T12:39:18;99777.69;;;17.00;41.71
29215;BME280;16252;49.816;7.964;2023-04-25T12:41:50;99780.41;;;17.00;41.77
29215;BME280;16252;49.816;7.964;2023-04-25T12:44:17;99751.66;;;16.91;41.84
29215;BME280;16252;49.816;7.964;2023-04-25T12:46:42;99728.28;;;16.74;40.85
29215;BME280;16252;49.816;7.964;2023-04-25T12:49:08;99751.47;;;16.84;41.40
29215;BME280;16252;49.816;7.964;2023-04-25T12:51:34;99742.63;;;16.74;41.04
29215;BME280;16252;49.816;7.964;2023-04-25T12:54:00;99740.56;;;16.68;41.32
29215;BME280;16252;49.816;7.964;2023-04-25T12:56:26;99749.69;;;16.67;41.22
29215;BME280;16252;49.816;7.964;2023-04-25T12:58:52;99775.75;;;16.76;40.57
29215;BME280;16252;49.816;7.964;2023-04-25T13:01:18;99762.00;;;16.61;40.50
29215;BME280;16252;49.816;7.964;2023-04-25T13:03:44;99754.03;;;16.60;41.13
29215;BME280;16252;49.816;7.964;2023-04-25T13:06:10;99762.28;;;16.58;40.98
29215;BME280;16252;49.816;7.964;2023-04-25T13:08:35;99759.91;;;16.55;40.84
29215;BME280;16252;49.816;7.964;2023-04-25T13:11:02;99775.78;;;16.58;40.97
29215;BME280;16252;49.816;7.964;2023-04-25T13:13:27;99775.25;;;16.46;40.94
29215;BME280;16252;49.816;7.964;2023-04-25T13:15:53;99762.06;;;16.43;40.76
29215;BME280;16252;49.816;7.964;2023-04-25T13:18:18;99783.88;;;16.50;40.52
29215;BME280;16252;49.816;7.964;2023-04-25T13:20:44;99780.47;;;16.48;40.58
29215;BME280;16252;49.816;7.964;2023-04-25T13:23:11;99750.03;;;16.38;40.39
29215;BME280;16252;49.816;7.964;2023-04-25T13:25:36;99781.88;;;16.60;40.26
29215;BME280;16252;49.816;7.964;2023-04-25T13:28:01;99782.06;;;16.59;40.24
29215;BME280;16252;49.816;7.964;2023-04-25T13:30:27;99772.25;;;16.58;40.42
29215;BME280;16252;49.816;7.964;2023-04-25T13:32:53;99789.19;;;16.68;40.55
29215;BME280;16252;49.816;7.964;2023-04-25T13:35:19;99776.66;;;16.59;40.37
29215;BME280;16252;49.816;7.964;2023-04-25T13:37:44;99783.78;;;16.68;40.68
29215;BME280;16252;49.816;7.964;2023-04-25T13:40:10;99786.69;;;16.75;40.41
29215;BME280;16252;49.816;7.964;2023-04-25T13:42:39;99801.16;;;16.92;39.90
29215;BME280;16252;49.816;7.964;2023-04-25T13:45:06;99787.59;;;16.83;39.91
29215;BME280;16252;49.816;7.964;2023-04-25T13:47:31;99778.13;;;16.79;39.64
29215;BME280;16252;49.816;7.964;2023-04-25T13:49:57;99784.53;;;16.78;39.91
29215;BME280;16252;49.816;7.964;2023-04-25T13:52:22;99784.38;;;16.80;40.14
29215;BME280;16252;49.816;7.964;2023-04-25T13:54:49;99817.38;;;16.92;40.08
29215;BME280;16252;49.816;7.964;2023-04-25T13:57:14;99805.53;;;16.84;39.83
29215;BME280;16252;49.816;7.964;2023-04-25T13:59:40;99827.00;;;16.94;39.82
29215;BME280;16252;49.816;7.964;2023-04-25T14:02:06;99824.47;;;16.93;39.87
29215;BME280;16252;49.816;7.964;2023-04-25T14:04:32;99799.38;;;16.74;39.64
29215;BME280;16252;49.816;7.964;2023-04-25T14:06:58;99781.88;;;16.60;39.39
29215;BME280;16252;49.816;7.964;2023-04-25T14:09:23;99787.78;;;16.56;39.83
29215;BME280;16252;49.816;7.964;2023-04-25T14:11:51;99795.22;;;16.54;39.41
29215;BME280;16252;49.816;7.964;2023-04-25T14:14:17;99811.28;;;16.63;39.73
29215;BME280;16252;49.816;7.964;2023-04-25T14:16:42;99785.22;;;16.46;40.02